Kenwood, CA (95452)

11:42 AM PST on December 20, 2014 (GMT -0800)
Kenwood Fire | Change Station
CLOSE
Current Station
Personal Weather Station
Location: Kenwood, CA
Elevation: 415 ft
Nearby Weather Stations
Active Advisory: Coastal Flood Advisory

Elev 415 ft 38.42 °N, 122.55 °W | Updated 42 seconds ago

Overcast
Overcast
53.6 °F
Feels Like 53.6 °F
N
0.0
Wind Variable Wind from SSE
Gusts 0.0 mph

Today
High -- | Low -- °F
--% Chance of Precip.
Yesterday
High -- | Low -- °F
Precip. -- in
7:23 AM 4:52 PM
Waning Crescent, 2% visible
Pressure 30.18 in
Visibility 2.0 miles
Clouds Overcast 400 ft
Dew Point 53 °F
Humidity 97%
Rainfall 0.00 in
Snow Depth Not available.
UV 0.0 out of 12
Pollen 4.00 out of 12
Air Quality Not available.
Flu Activity Not available.
METAR KSTS 201853Z 18003KT 2SM BR OVC004 13/12 A3020 RMK AO2 SLP219 T01280117

More Conditions Fewer Conditions

Pressure 30.18 in
Visibility 2.0 miles
Clouds Overcast 400 ft
Dew Point 53 °F
Humidity 97%
Rainfall 0.00 in
Snow Depth Not available.
UV 0.0 out of 12
Pollen 4.00 out of 12
Air Quality Not available.
Flu Activity Not available.
METAR KSTS 201853Z 18003KT 2SM BR OVC004 13/12 A3020 RMK AO2 SLP219 T01280117

More Conditions Fewer Conditions

10-Day Weather Forecast

Almanac

Astronomy

Dec. 20, 2014 Rise Set
Actual Time
Civil Twilight
Nautical Twilight
Astronomical Twilight
Moon
Length of Visible Light
Length of Day
Tomorrow will be .
, % of the Moon is Illuminated

Today's Extremes

State Highs State Lows

Community

WunderPhotos

Upload Photos

1,779,257 photos uploaded!

WunderBlogs® & News

Nearby

Air Quality

  Air Quality AQ Index Pollutant
Not available.

Snow Depth

Station Depth Elevation

Earthquake Activity

City Distance Mag. Time & Date
Minimum magnitude displayed is 2.5.

Coastal Water Temperatures

Place Temperature

Nearby Weather Stations